sensor_id;sensor_type;location;lat;lon;timestamp;temperature;humidity
31038;DHT22;17702;47.590;7.666;2023-05-10T00:02:07;15.20;99.90
31038;DHT22;17702;47.590;7.666;2023-05-10T00:04:33;15.10;99.90
31038;DHT22;17702;47.590;7.666;2023-05-10T00:06:58;15.10;99.90
31038;DHT22;17702;47.590;7.666;2023-05-10T00:09:24;15.10;99.90
31038;DHT22;17702;47.590;7.666;2023-05-10T00:11:49;15.10;99.90
31038;DHT22;17702;47.590;7.666;2023-05-10T00:14:15;15.10;99.90
31038;DHT22;17702;47.590;7.666;2023-05-10T00:16:40;15.10;99.90
31038;DHT22;17702;47.590;7.666;2023-05-10T00:19:06;15.10;99.90
31038;DHT22;17702;47.590;7.666;2023-05-10T00:21:32;15.20;99.90
31038;DHT22;17702;47.590;7.666;2023-05-10T00:23:59;15.20;99.90
31038;DHT22;17702;47.590;7.666;2023-05-10T00:26:25;15.20;99.90
31038;DHT22;17702;47.590;7.666;2023-05-10T00:28:51;15.10;99.90
31038;DHT22;17702;47.590;7.666;2023-05-10T00:31:16;15.10;99.90
31038;DHT22;17702;47.590;7.666;2023-05-10T00:33:42;15.10;99.90
31038;DHT22;17702;47.590;7.666;2023-05-10T00:36:07;15.10;99.90
31038;DHT22;17702;47.590;7.666;2023-05-10T00:38:33;15.10;99.90
31038;DHT22;17702;47.590;7.666;2023-05-10T00:40:59;15.10;99.90
31038;DHT22;17702;47.590;7.666;2023-05-10T00:43:24;15.10;99.90
31038;DHT22;17702;47.590;7.666;2023-05-10T00:45:50;15.20;99.90
31038;DHT22;17702;47.590;7.666;2023-05-10T00:48:15;15.20;99.90
31038;DHT22;17702;47.590;7.666;2023-05-10T00:50:41;15.20;99.90
31038;DHT22;17702;47.590;7.666;2023-05-10T00:53:07;15.20;99.90
31038;DHT22;17702;47.590;7.666;2023-05-10T00:55:33;15.20;99.90
31038;DHT22;17702;47.590;7.666;2023-05-10T00:57:58;15.20;99.90
31038;DHT22;17702;47.590;7.666;2023-05-10T01:00:24;15.20;99.90
31038;DHT22;17702;47.590;7.666;2023-05-10T01:02:50;15.10;99.90
31038;DHT22;17702;47.590;7.666;2023-05-10T01:05:16;15.10;99.90
31038;DHT22;17702;47.590;7.666;2023-05-10T01:07:42;15.20;99.90
31038;DHT22;17702;47.590;7.666;2023-05-10T01:10:07;15.10;99.90
31038;DHT22;17702;47.590;7.666;2023-05-10T01:12:37;15.10;99.90
31038;DHT22;17702;47.590;7.666;2023-05-10T01:15:03;15.10;99.90
31038;DHT22;17702;47.590;7.666;2023-05-10T01:17:29;15.10;99.90
31038;DHT22;17702;47.590;7.666;2023-05-10T01:19:55;15.00;99.90
31038;DHT22;17702;47.590;7.666;2023-05-10T01:32:37;15.00;99.90
31038;DHT22;17702;47.590;7.666;2023-05-10T01:35:12;15.00;99.90
31038;DHT22;17702;47.590;7.666;2023-05-10T01:37:45;14.90;99.90
31038;DHT22;17702;47.590;7.666;2023-05-10T01:40:20;15.00;99.90
31038;DHT22;17702;47.590;7.666;2023-05-10T01:42:53;15.00;99.90
31038;DHT22;17702;47.590;7.666;2023-05-10T01:47:50;15.00;99.90
31038;DHT22;17702;47.590;7.666;2023-05-10T01:50:22;14.90;99.90
31038;DHT22;17702;47.590;7.666;2023-05-10T01:52:50;14.90;99.90
31038;DHT22;17702;47.590;7.666;2023-05-10T01:55:18;15.00;99.90
31038;DHT22;17702;47.590;7.666;2023-05-10T01:57:44;15.00;99.90
31038;DHT22;17702;47.590;7.666;2023-05-10T02:00:11;15.00;99.90
31038;DHT22;17702;47.590;7.666;2023-05-10T02:02:39;15.00;99.90
31038;DHT22;17702;47.590;7.666;2023-05-10T02:05:05;14.90;99.90
31038;DHT22;17702;47.590;7.666;2023-05-10T02:07:31;14.90;99.90
31038;DHT22;17702;47.590;7.666;2023-05-10T02:09:57;14.90;99.90
31038;DHT22;17702;47.590;7.666;2023-05-10T02:12:23;14.90;99.90
31038;DHT22;17702;47.590;7.666;2023-05-10T02:14:49;14.90;99.90
31038;DHT22;17702;47.590;7.666;2023-05-10T02:17:16;14.90;99.90
31038;DHT22;17702;47.590;7.666;2023-05-10T02:19:41;14.90;99.90
31038;DHT22;17702;47.590;7.666;2023-05-10T02:22:08;14.90;99.90
31038;DHT22;17702;47.590;7.666;2023-05-10T02:24:34;14.90;99.90
31038;DHT22;17702;47.590;7.666;2023-05-10T02:27:02;14.90;99.90
31038;DHT22;17702;47.590;7.666;2023-05-10T02:29:28;14.90;99.90
31038;DHT22;17702;47.590;7.666;2023-05-10T02:31:55;14.90;99.90
31038;DHT22;17702;47.590;7.666;2023-05-10T02:34:22;14.90;99.90
31038;DHT22;17702;47.590;7.666;2023-05-10T02:36:48;14.90;99.90
31038;DHT22;17702;47.590;7.666;2023-05-10T02:39:15;14.90;99.90
31038;DHT22;17702;47.590;7.666;2023-05-10T02:41:41;14.90;99.90
31038;DHT22;17702;47.590;7.666;2023-05-10T02:44:07;15.00;99.90
31038;DHT22;17702;47.590;7.666;2023-05-10T02:46:34;15.00;99.90
31038;DHT22;17702;47.590;7.666;2023-05-10T02:49:00;15.00;99.90
31038;DHT22;17702;47.590;7.666;2023-05-10T02:51:27;14.90;99.90
31038;DHT22;17702;47.590;7.666;2023-05-10T02:53:53;15.00;99.90
31038;DHT22;17702;47.590;7.666;2023-05-10T02:56:23;14.90;99.90
31038;DHT22;17702;47.590;7.666;2023-05-10T02:58:50;14.90;99.90
31038;DHT22;17702;47.590;7.666;2023-05-10T03:01:15;15.00;99.90
31038;DHT22;17702;47.590;7.666;2023-05-10T03:03:41;15.00;99.90
31038;DHT22;17702;47.590;7.666;2023-05-10T03:06:07;14.90;99.90
31038;DHT22;17702;47.590;7.666;2023-05-10T03:08:32;14.90;99.90
31038;DHT22;17702;47.590;7.666;2023-05-10T03:11:01;14.90;99.90
31038;DHT22;17702;47.590;7.666;2023-05-10T03:13:36;14.90;99.90
31038;DHT22;17702;47.590;7.666;2023-05-10T03:18:46;14.90;99.90
31038;DHT22;17702;47.590;7.666;2023-05-10T03:21:12;14.90;99.90
31038;DHT22;17702;47.590;7.666;2023-05-10T03:23:48;14.90;99.90
31038;DHT22;17702;47.590;7.666;2023-05-10T03:26:20;14.90;99.90
31038;DHT22;17702;47.590;7.666;2023-05-10T03:28:48;14.80;99.90
31038;DHT22;17702;47.590;7.666;2023-05-10T03:31:15;14.90;99.90
31038;DHT22;17702;47.590;7.666;2023-05-10T03:33:50;14.80;99.90
31038;DHT22;17702;47.590;7.666;2023-05-10T03:36:15;14.70;99.90
31038;DHT22;17702;47.590;7.666;2023-05-10T03:38:41;14.70;99.90
31038;DHT22;17702;47.590;7.666;2023-05-10T03:41:06;14.60;99.90
31038;DHT22;17702;47.590;7.666;2023-05-10T03:43:32;14.70;99.90
31038;DHT22;17702;47.590;7.666;2023-05-10T03:45:57;14.60;99.90
31038;DHT22;17702;47.590;7.666;2023-05-10T03:48:23;14.70;99.90
31038;DHT22;17702;47.590;7.666;2023-05-10T03:50:48;14.70;99.90
31038;DHT22;17702;47.590;7.666;2023-05-10T03:53:15;14.60;99.90
31038;DHT22;17702;47.590;7.666;2023-05-10T03:55:40;14.60;99.90
31038;DHT22;17702;47.590;7.666;2023-05-10T03:58:06;14.60;99.90
31038;DHT22;17702;47.590;7.666;2023-05-10T04:00:31;14.70;99.90
31038;DHT22;17702;47.590;7.666;2023-05-10T04:02:57;14.60;99.90
31038;DHT22;17702;47.590;7.666;2023-05-10T04:05:23;14.50;99.90
31038;DHT22;17702;47.590;7.666;2023-05-10T04:07:49;14.50;99.90
31038;DHT22;17702;47.590;7.666;2023-05-10T04:10:15;14.50;99.90
31038;DHT22;17702;47.590;7.666;2023-05-10T04:12:41;14.40;99.90
31038;DHT22;17702;47.590;7.666;2023-05-10T04:15:07;14.50;99.90
31038;DHT22;17702;47.590;7.666;2023-05-10T04:17:33;14.60;99.90
31038;DHT22;17702;47.590;7.666;2023-05-10T04:19:59;14.70;99.90
31038;DHT22;17702;47.590;7.666;2023-05-10T04:22:24;14.70;99.90
31038;DHT22;17702;47.590;7.666;2023-05-10T04:24:49;14.70;99.90
31038;DHT22;17702;47.590;7.666;2023-05-10T04:27:15;14.60;99.90
31038;DHT22;17702;47.590;7.666;2023-05-10T04:29:41;14.60;99.90
31038;DHT22;17702;47.590;7.666;2023-05-10T04:32:06;14.60;99.90
31038;DHT22;17702;47.590;7.666;2023-05-10T04:34:32;14.60;99.90
31038;DHT22;17702;47.590;7.666;2023-05-10T04:36:59;14.50;99.90
31038;DHT22;17702;47.590;7.666;2023-05-10T04:39:24;14.50;99.90
31038;DHT22;17702;47.590;7.666;2023-05-10T04:41:50;14.40;99.90
31038;DHT22;17702;47.590;7.666;2023-05-10T04:44:16;14.50;99.90
31038;DHT22;17702;47.590;7.666;2023-05-10T04:46:41;14.50;99.90
31038;DHT22;17702;47.590;7.666;2023-05-10T04:49:06;14.60;99.90
31038;DHT22;17702;47.590;7.666;2023-05-10T04:51:32;14.50;99.90
31038;DHT22;17702;47.590;7.666;2023-05-10T04:53:58;14.50;99.90
31038;DHT22;17702;47.590;7.666;2023-05-10T04:56:23;14.50;99.90
31038;DHT22;17702;47.590;7.666;2023-05-10T04:58:49;14.50;99.90
31038;DHT22;17702;47.590;7.666;2023-05-10T05:01:14;14.50;99.90
31038;DHT22;17702;47.590;7.666;2023-05-10T05:03:40;14.40;99.90
31038;DHT22;17702;47.590;7.666;2023-05-10T05:06:05;14.30;99.90
31038;DHT22;17702;47.590;7.666;2023-05-10T05:08:31;14.30;99.90
31038;DHT22;17702;47.590;7.666;2023-05-10T05:10:57;14.20;99.90
31038;DHT22;17702;47.590;7.666;2023-05-10T05:13:22;14.20;99.90
31038;DHT22;17702;47.590;7.666;2023-05-10T05:15:47;14.10;99.90
31038;DHT22;17702;47.590;7.666;2023-05-10T05:18:13;14.00;99.90
31038;DHT22;17702;47.590;7.666;2023-05-10T05:20:38;13.90;99.90
31038;DHT22;17702;47.590;7.666;2023-05-10T05:23:04;14.10;99.90
31038;DHT22;17702;47.590;7.666;2023-05-10T05:25:29;14.00;99.90
31038;DHT22;17702;47.590;7.666;2023-05-10T05:27:55;14.00;99.90
31038;DHT22;17702;47.590;7.666;2023-05-10T05:30:20;14.00;99.90
31038;DHT22;17702;47.590;7.666;2023-05-10T05:32:46;14.00;99.90
31038;DHT22;17702;47.590;7.666;2023-05-10T05:35:12;13.90;99.90
31038;DHT22;17702;47.590;7.666;2023-05-10T05:37:37;13.90;99.90
31038;DHT22;17702;47.590;7.666;2023-05-10T05:40:03;14.00;99.90
31038;DHT22;17702;47.590;7.666;2023-05-10T05:42:30;13.90;99.90
31038;DHT22;17702;47.590;7.666;2023-05-10T05:44:56;14.00;99.90
31038;DHT22;17702;47.590;7.666;2023-05-10T05:47:21;14.00;99.90
31038;DHT22;17702;47.590;7.666;2023-05-10T05:49:47;14.00;99.90
31038;DHT22;17702;47.590;7.666;2023-05-10T05:52:12;14.10;99.90
31038;DHT22;17702;47.590;7.666;2023-05-10T05:54:38;14.10;99.90
31038;DHT22;17702;47.590;7.666;2023-05-10T05:57:03;14.10;99.90
31038;DHT22;17702;47.590;7.666;2023-05-10T05:59:29;14.10;99.90
31038;DHT22;17702;47.590;7.666;2023-05-10T06:01:54;14.10;99.90
31038;DHT22;17702;47.590;7.666;2023-05-10T06:04:20;14.10;99.90
31038;DHT22;17702;47.590;7.666;2023-05-10T06:06:45;14.10;99.90
31038;DHT22;17702;47.590;7.666;2023-05-10T06:09:11;14.00;99.90
31038;DHT22;17702;47.590;7.666;2023-05-10T06:11:37;14.10;99.90
31038;DHT22;17702;47.590;7.666;2023-05-10T06:14:03;14.10;99.90
31038;DHT22;17702;47.590;7.666;2023-05-10T06:16:29;14.10;99.90
31038;DHT22;17702;47.590;7.666;2023-05-10T06:18:55;14.20;99.90
31038;DHT22;17702;47.590;7.666;2023-05-10T06:21:20;14.20;99.90
31038;DHT22;17702;47.590;7.666;2023-05-10T06:23:46;14.20;99.90
31038;DHT22;17702;47.590;7.666;2023-05-10T06:26:11;14.30;99.90
31038;DHT22;17702;47.590;7.666;2023-05-10T06:28:37;14.30;99.90
31038;DHT22;17702;47.590;7.666;2023-05-10T06:31:05;14.40;99.90
31038;DHT22;17702;47.590;7.666;2023-05-10T06:33:31;14.40;99.90
31038;DHT22;17702;47.590;7.666;2023-05-10T06:35:57;14.40;99.90
31038;DHT22;17702;47.590;7.666;2023-05-10T06:38:22;14.50;99.90
31038;DHT22;17702;47.590;7.666;2023-05-10T06:40:48;14.50;99.90
31038;DHT22;17702;47.590;7.666;2023-05-10T06:43:14;14.50;99.90
31038;DHT22;17702;47.590;7.666;2023-05-10T06:45:39;14.60;99.90
31038;DHT22;17702;47.590;7.666;2023-05-10T06:48:06;14.60;99.90
31038;DHT22;17702;47.590;7.666;2023-05-10T06:50:31;14.70;99.90
31038;DHT22;17702;47.590;7.666;2023-05-10T06:52:57;14.70;99.90
31038;DHT22;17702;47.590;7.666;2023-05-10T06:55:23;14.80;99.90
31038;DHT22;17702;47.590;7.666;2023-05-10T06:57:48;14.80;99.90
31038;DHT22;17702;47.590;7.666;2023-05-10T07:00:14;15.40;99.90
31038;DHT22;17702;47.590;7.666;2023-05-10T07:02:40;15.70;99.90
31038;DHT22;17702;47.590;7.666;2023-05-10T07:05:06;15.90;99.90
31038;DHT22;17702;47.590;7.666;2023-05-10T07:07:31;16.00;99.90
31038;DHT22;17702;47.590;7.666;2023-05-10T07:09:57;16.00;99.90
31038;DHT22;17702;47.590;7.666;2023-05-10T07:12:23;15.90;99.90
31038;DHT22;17702;47.590;7.666;2023-05-10T07:14:48;15.90;99.90
31038;DHT22;17702;47.590;7.666;2023-05-10T07:17:14;15.70;99.90
31038;DHT22;17702;47.590;7.666;2023-05-10T07:19:40;15.70;99.90
31038;DHT22;17702;47.590;7.666;2023-05-10T07:22:05;15.60;99.90
31038;DHT22;17702;47.590;7.666;2023-05-10T07:24:31;15.50;99.90
31038;DHT22;17702;47.590;7.666;2023-05-10T07:26:57;15.40;99.90
31038;DHT22;17702;47.590;7.666;2023-05-10T07:29:22;15.30;99.90
31038;DHT22;17702;47.590;7.666;2023-05-10T07:31:48;15.30;99.90
31038;DHT22;17702;47.590;7.666;2023-05-10T07:34:13;15.30;99.90
31038;DHT22;17702;47.590;7.666;2023-05-10T07:36:39;15.30;99.90
31038;DHT22;17702;47.590;7.666;2023-05-10T07:39:04;15.20;99.90
31038;DHT22;17702;47.590;7.666;2023-05-10T07:41:30;15.10;99.90
31038;DHT22;17702;47.590;7.666;2023-05-10T07:46:21;15.10;99.90
31038;DHT22;17702;47.590;7.666;2023-05-10T07:48:46;15.10;99.90
31038;DHT22;17702;47.590;7.666;2023-05-10T07:51:12;15.00;99.90
31038;DHT22;17702;47.590;7.666;2023-05-10T07:53:38;14.90;99.90
31038;DHT22;17702;47.590;7.666;2023-05-10T07:56:23;14.90;99.90
31038;DHT22;17702;47.590;7.666;2023-05-10T07:58:50;15.10;99.90
31038;DHT22;17702;47.590;7.666;2023-05-10T08:01:15;15.30;99.90
31038;DHT22;17702;47.590;7.666;2023-05-10T08:03:41;15.60;99.90
31038;DHT22;17702;47.590;7.666;2023-05-10T08:06:06;15.70;99.90
31038;DHT22;17702;47.590;7.666;2023-05-10T08:08:32;15.80;99.90
31038;DHT22;17702;47.590;7.666;2023-05-10T08:10:57;15.70;99.90
31038;DHT22;17702;47.590;7.666;2023-05-10T08:13:23;15.70;99.90
31038;DHT22;17702;47.590;7.666;2023-05-10T08:15:48;15.70;99.90
31038;DHT22;17702;47.590;7.666;2023-05-10T08:18:14;15.70;99.90
31038;DHT22;17702;47.590;7.666;2023-05-10T08:20:39;15.70;99.90
31038;DHT22;17702;47.590;7.666;2023-05-10T08:23:05;15.70;99.90
31038;DHT22;17702;47.590;7.666;2023-05-10T08:25:31;15.60;99.90
31038;DHT22;17702;47.590;7.666;2023-05-10T08:27:56;15.50;99.90
31038;DHT22;17702;47.590;7.666;2023-05-10T08:30:22;15.50;99.90
31038;DHT22;17702;47.590;7.666;2023-05-10T08:32:47;15.40;99.90
31038;DHT22;17702;47.590;7.666;2023-05-10T08:35:13;15.40;99.90
31038;DHT22;17702;47.590;7.666;2023-05-10T08:37:38;15.60;99.90
31038;DHT22;17702;47.590;7.666;2023-05-10T08:40:04;15.80;99.90
31038;DHT22;17702;47.590;7.666;2023-05-10T08:42:30;16.20;99.90
31038;DHT22;17702;47.590;7.666;2023-05-10T08:44:59;16.40;99.90
31038;DHT22;17702;47.590;7.666;2023-05-10T08:47:24;16.60;99.90
31038;DHT22;17702;47.590;7.666;2023-05-10T08:49:50;16.80;99.90
31038;DHT22;17702;47.590;7.666;2023-05-10T08:52:16;16.90;99.90
31038;DHT22;17702;47.590;7.666;2023-05-10T08:54:42;17.10;99.90
31038;DHT22;17702;47.590;7.666;2023-05-10T08:57:09;17.20;99.30
31038;DHT22;17702;47.590;7.666;2023-05-10T08:59:35;17.30;98.90
31038;DHT22;17702;47.590;7.666;2023-05-10T09:02:01;17.40;98.50
31038;DHT22;17702;47.590;7.666;2023-05-10T09:04:27;17.50;99.90
31038;DHT22;17702;47.590;7.666;2023-05-10T09:06:53;17.60;99.90
31038;DHT22;17702;47.590;7.666;2023-05-10T09:09:19;17.60;98.80
31038;DHT22;17702;47.590;7.666;2023-05-10T09:11:44;17.50;99.50
31038;DHT22;17702;47.590;7.666;2023-05-10T09:14:10;17.50;99.30
31038;DHT22;17702;47.590;7.666;2023-05-10T09:16:37;17.50;97.30
31038;DHT22;17702;47.590;7.666;2023-05-10T09:19:03;17.50;97.50
31038;DHT22;17702;47.590;7.666;2023-05-10T09:21:28;17.60;97.80
31038;DHT22;17702;47.590;7.666;2023-05-10T09:23:55;17.70;95.90
31038;DHT22;17702;47.590;7.666;2023-05-10T09:26:24;17.60;93.90
31038;DHT22;17702;47.590;7.666;2023-05-10T09:28:54;17.50;95.90
31038;DHT22;17702;47.590;7.666;2023-05-10T09:31:19;17.50;96.50
31038;DHT22;17702;47.590;7.666;2023-05-10T09:33:45;17.60;96.90
31038;DHT22;17702;47.590;7.666;2023-05-10T09:36:12;17.80;98.30
31038;DHT22;17702;47.590;7.666;2023-05-10T09:39:11;17.90;93.70
31038;DHT22;17702;47.590;7.666;2023-05-10T09:41:29;17.90;94.50
31038;DHT22;17702;47.590;7.666;2023-05-10T09:43:55;18.00;94.50
31038;DHT22;17702;47.590;7.666;2023-05-10T09:46:21;18.10;94.30
31038;DHT22;17702;47.590;7.666;2023-05-10T09:48:47;18.30;93.70
31038;DHT22;17702;47.590;7.666;2023-05-10T09:53:45;18.50;90.50
31038;DHT22;17702;47.590;7.666;2023-05-10T09:56:11;18.50;94.60
31038;DHT22;17702;47.590;7.666;2023-05-10T09:58:36;18.70;92.90
31038;DHT22;17702;47.590;7.666;2023-05-10T10:01:03;18.80;92.90
31038;DHT22;17702;47.590;7.666;2023-05-10T10:03:28;18.90;90.50
31038;DHT22;17702;47.590;7.666;2023-05-10T10:05:55;19.00;89.60
31038;DHT22;17702;47.590;7.666;2023-05-10T10:08:21;19.00;87.00
31038;DHT22;17702;47.590;7.666;2023-05-10T10:10:46;18.90;82.40
31038;DHT22;17702;47.590;7.666;2023-05-10T10:13:12;18.70;82.50
31038;DHT22;17702;47.590;7.666;2023-05-10T10:15:38;18.60;90.10
31038;DHT22;17702;47.590;7.666;2023-05-10T10:18:03;18.40;87.30
31038;DHT22;17702;47.590;7.666;2023-05-10T10:20:30;18.20;85.50
31038;DHT22;17702;47.590;7.666;2023-05-10T10:22:55;18.00;90.30
31038;DHT22;17702;47.590;7.666;2023-05-10T10:25:21;17.90;88.30
31038;DHT22;17702;47.590;7.666;2023-05-10T10:27:49;17.80;86.50
31038;DHT22;17702;47.590;7.666;2023-05-10T10:35:29;17.50;93.10
31038;DHT22;17702;47.590;7.666;2023-05-10T10:37:54;17.50;93.70
31038;DHT22;17702;47.590;7.666;2023-05-10T10:40:30;17.70;95.20
31038;DHT22;17702;47.590;7.666;2023-05-10T10:42:56;18.00;92.10
31038;DHT22;17702;47.590;7.666;2023-05-10T10:45:22;18.20;92.30
31038;DHT22;17702;47.590;7.666;2023-05-10T10:47:48;18.30;87.70
31038;DHT22;17702;47.590;7.666;2023-05-10T10:50:15;18.30;85.20
31038;DHT22;17702;47.590;7.666;2023-05-10T10:52:41;18.40;81.50
31038;DHT22;17702;47.590;7.666;2023-05-10T10:55:08;18.40;82.50
31038;DHT22;17702;47.590;7.666;2023-05-10T11:02:51;18.40;84.80
31038;DHT22;17702;47.590;7.666;2023-05-10T11:07:55;18.30;90.20
31038;DHT22;17702;47.590;7.666;2023-05-10T11:10:21;18.20;84.90
31038;DHT22;17702;47.590;7.666;2023-05-10T11:12:53;18.00;88.10
31038;DHT22;17702;47.590;7.666;2023-05-10T11:15:28;18.00;85.20
31038;DHT22;17702;47.590;7.666;2023-05-10T11:17:53;18.10;83.50
31038;DHT22;17702;47.590;7.666;2023-05-10T11:20:20;18.20;83.70
31038;DHT22;17702;47.590;7.666;2023-05-10T11:22:49;18.60;85.60
31038;DHT22;17702;47.590;7.666;2023-05-10T11:25:16;18.80;83.50
31038;DHT22;17702;47.590;7.666;2023-05-10T11:27:41;18.90;83.50
31038;DHT22;17702;47.590;7.666;2023-05-10T11:30:08;18.90;80.90
31038;DHT22;17702;47.590;7.666;2023-05-10T11:32:36;18.80;81.60
31038;DHT22;17702;47.590;7.666;2023-05-10T11:35:11;18.70;81.30
31038;DHT22;17702;47.590;7.666;2023-05-10T11:37:37;18.70;83.70
31038;DHT22;17702;47.590;7.666;2023-05-10T11:40:09;18.60;84.10
31038;DHT22;17702;47.590;7.666;2023-05-10T11:42:38;18.50;83.40
31038;DHT22;17702;47.590;7.666;2023-05-10T11:45:04;18.40;77.90
31038;DHT22;17702;47.590;7.666;2023-05-10T11:47:29;18.20;78.60
31038;DHT22;17702;47.590;7.666;2023-05-10T11:49:55;18.10;83.10
31038;DHT22;17702;47.590;7.666;2023-05-10T11:52:20;18.00;77.80
31038;DHT22;17702;47.590;7.666;2023-05-10T11:54:52;18.00;80.90
31038;DHT22;17702;47.590;7.666;2023-05-10T11:57:18;17.90;77.50
31038;DHT22;17702;47.590;7.666;2023-05-10T11:59:45;17.80;80.00
31038;DHT22;17702;47.590;7.666;2023-05-10T12:02:11;17.70;82.70
31038;DHT22;17702;47.590;7.666;2023-05-10T12:04:36;17.70;86.10
31038;DHT22;17702;47.590;7.666;2023-05-10T12:07:02;17.60;82.60
31038;DHT22;17702;47.590;7.666;2023-05-10T12:09:28;17.60;83.10
31038;DHT22;17702;47.590;7.666;2023-05-10T12:11:55;17.60;84.00
31038;DHT22;17702;47.590;7.666;2023-05-10T12:14:22;17.70;84.50
31038;DHT22;17702;47.590;7.666;2023-05-10T12:16:47;17.70;81.50
31038;DHT22;17702;47.590;7.666;2023-05-10T12:19:13;17.80;81.80
31038;DHT22;17702;47.590;7.666;2023-05-10T12:21:43;17.70;81.40
31038;DHT22;17702;47.590;7.666;2023-05-10T12:24:09;17.60;81.30
31038;DHT22;17702;47.590;7.666;2023-05-10T12:26:35;17.50;82.60
31038;DHT22;17702;47.590;7.666;2023-05-10T12:29:14;17.30;79.20
31038;DHT22;17702;47.590;7.666;2023-05-10T12:31:57;17.20;82.50
31038;DHT22;17702;47.590;7.666;2023-05-10T12:34:32;17.10;85.00
31038;DHT22;17702;47.590;7.666;2023-05-10T12:36:58;17.20;83.50
31038;DHT22;17702;47.590;7.666;2023-05-10T12:39:24;17.30;86.20
31038;DHT22;17702;47.590;7.666;2023-05-10T12:41:50;17.40;83.50
31038;DHT22;17702;47.590;7.666;2023-05-10T12:44:16;17.60;82.80
31038;DHT22;17702;47.590;7.666;2023-05-10T12:46:42;17.60;81.20
31038;DHT22;17702;47.590;7.666;2023-05-10T12:49:07;17.70;84.30
31038;DHT22;17702;47.590;7.666;2023-05-10T12:51:33;17.80;78.40
31038;DHT22;17702;47.590;7.666;2023-05-10T12:53:58;17.70;77.60
31038;DHT22;17702;47.590;7.666;2023-05-10T12:56:24;17.70;77.90
31038;DHT22;17702;47.590;7.666;2023-05-10T12:58:50;17.70;80.00
31038;DHT22;17702;47.590;7.666;2023-05-10T13:01:16;17.70;83.20
31038;DHT22;17702;47.590;7.666;2023-05-10T13:03:41;17.80;80.70
31038;DHT22;17702;47.590;7.666;2023-05-10T13:06:08;17.80;76.30
31038;DHT22;17702;47.590;7.666;2023-05-10T13:08:33;17.80;76.60
31038;DHT22;17702;47.590;7.666;2023-05-10T13:11:02;17.70;77.00
31038;DHT22;17702;47.590;7.666;2023-05-10T13:13:28;17.70;78.30
31038;DHT22;17702;47.590;7.666;2023-05-10T13:15:53;17.70;81.30
31038;DHT22;17702;47.590;7.666;2023-05-10T13:18:19;17.80;81.00
31038;DHT22;17702;47.590;7.666;2023-05-10T13:20:46;17.80;80.70
31038;DHT22;17702;47.590;7.666;2023-05-10T13:23:12;17.80;79.20
31038;DHT22;17702;47.590;7.666;2023-05-10T13:25:37;17.80;78.30
31038;DHT22;17702;47.590;7.666;2023-05-10T13:28:03;17.70;74.90
31038;DHT22;17702;47.590;7.666;2023-05-10T13:30:29;17.60;76.60
31038;DHT22;17702;47.590;7.666;2023-05-10T13:32:54;17.60;78.10
31038;DHT22;17702;47.590;7.666;2023-05-10T13:35:20;17.60;75.70
31038;DHT22;17702;47.590;7.666;2023-05-10T13:37:45;17.50;78.40
31038;DHT22;17702;47.590;7.666;2023-05-10T13:40:11;17.50;79.00
31038;DHT22;17702;47.590;7.666;2023-05-10T13:42:36;17.50;80.80
31038;DHT22;17702;47.590;7.666;2023-05-10T13:45:02;17.50;81.60
31038;DHT22;17702;47.590;7.666;2023-05-10T13:47:28;17.50;82.70
31038;DHT22;17702;47.590;7.666;2023-05-10T13:49:54;17.50;83.30
31038;DHT22;17702;47.590;7.666;2023-05-10T13:52:19;17.60;81.40
31038;DHT22;17702;47.590;7.666;2023-05-10T13:54:44;17.70;84.30
31038;DHT22;17702;47.590;7.666;2023-05-10T13:57:11;17.80;85.10
31038;DHT22;17702;47.590;7.666;2023-05-10T13:59:39;17.90;81.30
31038;DHT22;17702;47.590;7.666;2023-05-10T14:02:04;18.00;78.80
31038;DHT22;17702;47.590;7.666;2023-05-10T14:04:30;18.00;81.30
31038;DHT22;17702;47.590;7.666;2023-05-10T14:06:56;18.10;79.70
31038;DHT22;17702;47.590;7.666;2023-05-10T14:09:22;18.20;79.80
31038;DHT22;17702;47.590;7.666;2023-05-10T14:11:47;18.30;78.80
31038;DHT22;17702;47.590;7.666;2023-05-10T14:14:13;18.30;73.40
31038;DHT22;17702;47.590;7.666;2023-05-10T14:16:42;18.30;73.50
31038;DHT22;17702;47.590;7.666;2023-05-10T14:19:08;18.30;79.00
31038;DHT22;17702;47.590;7.666;2023-05-10T14:21:34;18.30;74.80
31038;DHT22;17702;47.590;7.666;2023-05-10T14:23:59;18.30;75.40
31038;DHT22;17702;47.590;7.666;2023-05-10T14:26:25;18.30;76.40
31038;DHT22;17702;47.590;7.666;2023-05-10T14:28:51;18.30;74.90
31038;DHT22;17702;47.590;7.666;2023-05-10T14:31:17;18.30;75.80
31038;DHT22;17702;47.590;7.666;2023-05-10T14:33:44;18.30;75.10
31038;DHT22;17702;47.590;7.666;2023-05-10T14:36:10;18.40;75.00
31038;DHT22;17702;47.590;7.666;2023-05-10T14:38:35;18.30;74.40
31038;DHT22;17702;47.590;7.666;2023-05-10T14:41:01;18.30;74.20
31038;DHT22;17702;47.590;7.666;2023-05-10T14:43:27;18.20;75.40
31038;DHT22;17702;47.590;7.666;2023-05-10T14:45:53;18.20;76.80
31038;DHT22;17702;47.590;7.666;2023-05-10T14:48:19;18.20;77.30
31038;DHT22;17702;47.590;7.666;2023-05-10T14:50:44;18.20;78.20
31038;DHT22;17702;47.590;7.666;2023-05-10T14:53:10;18.30;77.10
31038;DHT22;17702;47.590;7.666;2023-05-10T14:55:35;18.40;78.90
31038;DHT22;17702;47.590;7.666;2023-05-10T14:58:02;18.70;71.20
31038;DHT22;17702;47.590;7.666;2023-05-10T15:00:28;18.80;70.30
31038;DHT22;17702;47.590;7.666;2023-05-10T15:02:54;18.90;68.10
31038;DHT22;17702;47.590;7.666;2023-05-10T15:05:19;19.00;67.40
31038;DHT22;17702;47.590;7.666;2023-05-10T15:07:45;19.10;69.50
31038;DHT22;17702;47.590;7.666;2023-05-10T15:10:11;19.10;68.80
31038;DHT22;17702;47.590;7.666;2023-05-10T15:12:36;19.00;72.00
31038;DHT22;17702;47.590;7.666;2023-05-10T15:15:02;19.00;71.30
31038;DHT22;17702;47.590;7.666;2023-05-10T15:17:28;18.90;71.10
31038;DHT22;17702;47.590;7.666;2023-05-10T15:19:53;18.80;73.70
31038;DHT22;17702;47.590;7.666;2023-05-10T15:22:19;18.60;75.30
31038;DHT22;17702;47.590;7.666;2023-05-10T15:24:44;18.50;76.00
31038;DHT22;17702;47.590;7.666;2023-05-10T15:27:10;18.40;75.50
31038;DHT22;17702;47.590;7.666;2023-05-10T15:29:35;18.20;76.40
31038;DHT22;17702;47.590;7.666;2023-05-10T15:32:01;18.10;77.80
31038;DHT22;17702;47.590;7.666;2023-05-10T15:34:28;18.10;80.30
31038;DHT22;17702;47.590;7.666;2023-05-10T15:36:53;18.10;78.40
31038;DHT22;17702;47.590;7.666;2023-05-10T15:39:19;18.10;80.60
31038;DHT22;17702;47.590;7.666;2023-05-10T15:41:44;18.20;79.10
31038;DHT22;17702;47.590;7.666;2023-05-10T15:44:10;18.30;78.30
31038;DHT22;17702;47.590;7.666;2023-05-10T15:46:36;18.30;78.80
31038;DHT22;17702;47.590;7.666;2023-05-10T15:49:03;18.30;76.90
31038;DHT22;17702;47.590;7.666;2023-05-10T15:51:28;18.30;78.90
31038;DHT22;17702;47.590;7.666;2023-05-10T15:53:54;18.20;78.70
31038;DHT22;17702;47.590;7.666;2023-05-10T15:56:20;18.00;80.00
31038;DHT22;17702;47.590;7.666;2023-05-10T15:58:45;17.90;82.50